sensor_id;sensor_type;location;lat;lon;timestamp;temperature;humidity
79716;DHT22;69209;51.420;5.400;2023-05-01T00:02:18;16.80;69.00
79716;DHT22;69209;51.420;5.400;2023-05-01T00:04:43;16.80;69.00
79716;DHT22;69209;51.420;5.400;2023-05-01T00:07:09;16.70;69.00
79716;DHT22;69209;51.420;5.400;2023-05-01T00:09:34;16.80;69.00
79716;DHT22;69209;51.420;5.400;2023-05-01T00:12:00;16.80;69.00
79716;DHT22;69209;51.420;5.400;2023-05-01T00:14:27;16.80;69.10
79716;DHT22;69209;51.420;5.400;2023-05-01T00:16:52;16.70;69.00
79716;DHT22;69209;51.420;5.400;2023-05-01T00:19:18;16.70;69.10
79716;DHT22;69209;51.420;5.400;2023-05-01T00:21:46;16.70;69.10
79716;DHT22;69209;51.420;5.400;2023-05-01T00:24:13;16.70;69.20
79716;DHT22;69209;51.420;5.400;2023-05-01T00:26:38;16.70;69.20
79716;DHT22;69209;51.420;5.400;2023-05-01T00:29:04;16.60;69.20
79716;DHT22;69209;51.420;5.400;2023-05-01T00:31:29;16.60;69.30
79716;DHT22;69209;51.420;5.400;2023-05-01T00:33:55;16.60;69.40
79716;DHT22;69209;51.420;5.400;2023-05-01T00:36:20;16.60;69.40
79716;DHT22;69209;51.420;5.400;2023-05-01T00:38:46;16.60;69.50
79716;DHT22;69209;51.420;5.400;2023-05-01T00:41:11;16.50;69.50
79716;DHT22;69209;51.420;5.400;2023-05-01T00:43:37;16.50;69.50
79716;DHT22;69209;51.420;5.400;2023-05-01T00:46:02;16.50;69.60
79716;DHT22;69209;51.420;5.400;2023-05-01T00:48:28;16.50;69.60
79716;DHT22;69209;51.420;5.400;2023-05-01T00:50:54;16.50;69.60
79716;DHT22;69209;51.420;5.400;2023-05-01T00:53:20;16.50;69.60
79716;DHT22;69209;51.420;5.400;2023-05-01T00:55:45;16.50;69.70
79716;DHT22;69209;51.420;5.400;2023-05-01T00:58:11;16.40;69.70
79716;DHT22;69209;51.420;5.400;2023-05-01T01:00:38;16.40;69.80
79716;DHT22;69209;51.420;5.400;2023-05-01T01:03:03;16.40;69.80
79716;DHT22;69209;51.420;5.400;2023-05-01T01:05:29;16.40;69.80
79716;DHT22;69209;51.420;5.400;2023-05-01T01:08:19;16.40;69.90
79716;DHT22;69209;51.420;5.400;2023-05-01T01:10:46;16.40;69.90
79716;DHT22;69209;51.420;5.400;2023-05-01T01:13:31;16.40;70.00
79716;DHT22;69209;51.420;5.400;2023-05-01T01:16:14;16.30;70.00
79716;DHT22;69209;51.420;5.400;2023-05-01T01:18:57;16.30;70.10
79716;DHT22;69209;51.420;5.400;2023-05-01T01:31:59;16.30;70.30
79716;DHT22;69209;51.420;5.400;2023-05-01T01:34:32;16.30;70.40
79716;DHT22;69209;51.420;5.400;2023-05-01T01:37:10;16.30;70.50
79716;DHT22;69209;51.420;5.400;2023-05-01T01:42:08;16.20;70.50
79716;DHT22;69209;51.420;5.400;2023-05-01T01:44:38;16.20;70.60
79716;DHT22;69209;51.420;5.400;2023-05-01T01:47:05;16.20;70.60
79716;DHT22;69209;51.420;5.400;2023-05-01T01:49:31;16.20;70.60
79716;DHT22;69209;51.420;5.400;2023-05-01T01:51:58;16.10;70.70
79716;DHT22;69209;51.420;5.400;2023-05-01T01:54:25;16.20;70.80
79716;DHT22;69209;51.420;5.400;2023-05-01T01:56:53;16.10;70.80
79716;DHT22;69209;51.420;5.400;2023-05-01T01:59:20;16.20;70.90
79716;DHT22;69209;51.420;5.400;2023-05-01T02:01:46;16.20;70.90
79716;DHT22;69209;51.420;5.400;2023-05-01T02:04:11;16.10;70.90
79716;DHT22;69209;51.420;5.400;2023-05-01T02:06:38;16.10;71.00
79716;DHT22;69209;51.420;5.400;2023-05-01T02:09:05;16.10;71.00
79716;DHT22;69209;51.420;5.400;2023-05-01T02:11:31;16.10;71.10
79716;DHT22;69209;51.420;5.400;2023-05-01T02:13:59;16.10;71.20
79716;DHT22;69209;51.420;5.400;2023-05-01T02:16:26;16.00;71.10
79716;DHT22;69209;51.420;5.400;2023-05-01T02:18:52;16.10;71.20
79716;DHT22;69209;51.420;5.400;2023-05-01T02:21:18;16.10;71.20
79716;DHT22;69209;51.420;5.400;2023-05-01T02:23:44;16.00;71.20
79716;DHT22;69209;51.420;5.400;2023-05-01T02:26:12;16.00;71.20
79716;DHT22;69209;51.420;5.400;2023-05-01T02:28:41;16.00;71.20
79716;DHT22;69209;51.420;5.400;2023-05-01T02:31:06;16.00;71.30
79716;DHT22;69209;51.420;5.400;2023-05-01T02:33:32;16.00;71.30
79716;DHT22;69209;51.420;5.400;2023-05-01T02:35:57;16.00;71.40
79716;DHT22;69209;51.420;5.400;2023-05-01T02:38:23;15.90;71.40
79716;DHT22;69209;51.420;5.400;2023-05-01T02:40:49;15.90;71.40
79716;DHT22;69209;51.420;5.400;2023-05-01T02:43:17;15.90;71.60
79716;DHT22;69209;51.420;5.400;2023-05-01T02:45:43;15.90;71.60
79716;DHT22;69209;51.420;5.400;2023-05-01T02:48:09;15.90;71.60
79716;DHT22;69209;51.420;5.400;2023-05-01T02:50:36;15.90;71.70
79716;DHT22;69209;51.420;5.400;2023-05-01T02:53:04;15.90;71.70
79716;DHT22;69209;51.420;5.400;2023-05-01T02:55:31;15.90;71.70
79716;DHT22;69209;51.420;5.400;2023-05-01T02:57:57;15.90;71.80
79716;DHT22;69209;51.420;5.400;2023-05-01T03:00:23;15.90;71.80
79716;DHT22;69209;51.420;5.400;2023-05-01T03:02:48;15.90;71.80
79716;DHT22;69209;51.420;5.400;2023-05-01T03:05:14;15.80;71.90
79716;DHT22;69209;51.420;5.400;2023-05-01T03:07:40;15.80;72.10
79716;DHT22;69209;51.420;5.400;2023-05-01T03:10:05;15.80;72.00
79716;DHT22;69209;51.420;5.400;2023-05-01T03:12:32;15.80;72.20
79716;DHT22;69209;51.420;5.400;2023-05-01T03:14:57;15.80;72.20
79716;DHT22;69209;51.420;5.400;2023-05-01T03:17:23;15.80;72.20
79716;DHT22;69209;51.420;5.400;2023-05-01T03:19:48;15.80;72.40
79716;DHT22;69209;51.420;5.400;2023-05-01T03:22:14;15.70;72.30
79716;DHT22;69209;51.420;5.400;2023-05-01T03:24:40;15.70;72.40
79716;DHT22;69209;51.420;5.400;2023-05-01T03:27:05;15.70;72.40
79716;DHT22;69209;51.420;5.400;2023-05-01T03:29:32;15.70;72.40
79716;DHT22;69209;51.420;5.400;2023-05-01T03:31:58;15.70;72.50
79716;DHT22;69209;51.420;5.400;2023-05-01T03:34:24;15.70;72.60
79716;DHT22;69209;51.420;5.400;2023-05-01T03:36:49;15.70;72.70
79716;DHT22;69209;51.420;5.400;2023-05-01T03:39:14;15.70;72.70
79716;DHT22;69209;51.420;5.400;2023-05-01T03:41:40;15.60;72.90
79716;DHT22;69209;51.420;5.400;2023-05-01T03:44:05;15.60;72.80
79716;DHT22;69209;51.420;5.400;2023-05-01T03:46:31;15.60;72.80
79716;DHT22;69209;51.420;5.400;2023-05-01T03:48:56;15.60;72.80
79716;DHT22;69209;51.420;5.400;2023-05-01T03:51:22;15.60;72.90
79716;DHT22;69209;51.420;5.400;2023-05-01T03:53:48;15.60;73.00
79716;DHT22;69209;51.420;5.400;2023-05-01T03:56:13;15.60;73.00
79716;DHT22;69209;51.420;5.400;2023-05-01T03:58:39;15.60;73.00
79716;DHT22;69209;51.420;5.400;2023-05-01T04:01:04;15.60;73.10
79716;DHT22;69209;51.420;5.400;2023-05-01T04:03:30;15.50;73.00
79716;DHT22;69209;51.420;5.400;2023-05-01T04:05:55;15.50;73.10
79716;DHT22;69209;51.420;5.400;2023-05-01T04:08:21;15.60;73.30
79716;DHT22;69209;51.420;5.400;2023-05-01T04:10:46;15.50;73.20
79716;DHT22;69209;51.420;5.400;2023-05-01T04:13:12;15.50;73.40
79716;DHT22;69209;51.420;5.400;2023-05-01T04:15:38;15.50;73.40
79716;DHT22;69209;51.420;5.400;2023-05-01T04:18:03;15.50;73.50
79716;DHT22;69209;51.420;5.400;2023-05-01T04:20:29;15.50;73.60
79716;DHT22;69209;51.420;5.400;2023-05-01T04:22:54;15.40;73.60
79716;DHT22;69209;51.420;5.400;2023-05-01T04:25:20;15.40;73.80
79716;DHT22;69209;51.420;5.400;2023-05-01T04:27:45;15.40;73.90
79716;DHT22;69209;51.420;5.400;2023-05-01T04:30:11;15.40;74.10
79716;DHT22;69209;51.420;5.400;2023-05-01T04:32:36;15.30;74.10
79716;DHT22;69209;51.420;5.400;2023-05-01T04:35:02;15.40;74.40
79716;DHT22;69209;51.420;5.400;2023-05-01T04:37:28;15.30;74.30
79716;DHT22;69209;51.420;5.400;2023-05-01T04:39:54;15.30;74.40
79716;DHT22;69209;51.420;5.400;2023-05-01T04:42:19;15.30;75.20
79716;DHT22;69209;51.420;5.400;2023-05-01T04:44:45;15.30;74.50
79716;DHT22;69209;51.420;5.400;2023-05-01T04:47:11;15.30;74.70
79716;DHT22;69209;51.420;5.400;2023-05-01T04:49:37;15.30;74.70
79716;DHT22;69209;51.420;5.400;2023-05-01T04:52:02;15.30;74.70
79716;DHT22;69209;51.420;5.400;2023-05-01T04:54:28;15.30;74.70
79716;DHT22;69209;51.420;5.400;2023-05-01T04:56:54;15.40;74.70
79716;DHT22;69209;51.420;5.400;2023-05-01T04:59:19;15.30;74.70
79716;DHT22;69209;51.420;5.400;2023-05-01T05:01:45;15.40;74.70
79716;DHT22;69209;51.420;5.400;2023-05-01T05:04:10;15.40;74.60
79716;DHT22;69209;51.420;5.400;2023-05-01T05:06:36;15.50;74.50
79716;DHT22;69209;51.420;5.400;2023-05-01T05:09:01;15.50;74.50
79716;DHT22;69209;51.420;5.400;2023-05-01T05:11:27;15.50;74.30
79716;DHT22;69209;51.420;5.400;2023-05-01T05:13:53;15.60;74.30
79716;DHT22;69209;51.420;5.400;2023-05-01T05:16:18;15.60;74.20
79716;DHT22;69209;51.420;5.400;2023-05-01T05:18:44;15.60;74.10
79716;DHT22;69209;51.420;5.400;2023-05-01T05:21:09;15.70;74.10
79716;DHT22;69209;51.420;5.400;2023-05-01T05:23:35;15.80;74.00
79716;DHT22;69209;51.420;5.400;2023-05-01T05:26:01;15.80;73.80
79716;DHT22;69209;51.420;5.400;2023-05-01T05:28:27;15.80;73.80
79716;DHT22;69209;51.420;5.400;2023-05-01T05:30:53;15.90;73.70
79716;DHT22;69209;51.420;5.400;2023-05-01T05:33:18;15.90;73.50
79716;DHT22;69209;51.420;5.400;2023-05-01T05:35:44;16.10;73.20
79716;DHT22;69209;51.420;5.400;2023-05-01T05:38:09;16.20;73.00
79716;DHT22;69209;51.420;5.400;2023-05-01T05:40:35;16.30;72.80
79716;DHT22;69209;51.420;5.400;2023-05-01T05:43:00;16.40;72.50
79716;DHT22;69209;51.420;5.400;2023-05-01T05:45:26;16.50;72.10
79716;DHT22;69209;51.420;5.400;2023-05-01T05:47:51;16.60;71.60
79716;DHT22;69209;51.420;5.400;2023-05-01T05:50:18;16.80;71.20
79716;DHT22;69209;51.420;5.400;2023-05-01T05:52:43;16.80;71.10
79716;DHT22;69209;51.420;5.400;2023-05-01T05:55:09;16.90;71.00
79716;DHT22;69209;51.420;5.400;2023-05-01T05:57:35;16.90;71.10
79716;DHT22;69209;51.420;5.400;2023-05-01T06:00:03;17.00;71.10
79716;DHT22;69209;51.420;5.400;2023-05-01T06:02:30;17.00;71.00
79716;DHT22;69209;51.420;5.400;2023-05-01T06:04:56;17.10;71.00
79716;DHT22;69209;51.420;5.400;2023-05-01T06:07:22;17.10;70.80
79716;DHT22;69209;51.420;5.400;2023-05-01T06:09:48;17.30;70.40
79716;DHT22;69209;51.420;5.400;2023-05-01T06:12:13;17.30;70.20
79716;DHT22;69209;51.420;5.400;2023-05-01T06:14:39;17.40;69.90
79716;DHT22;69209;51.420;5.400;2023-05-01T06:17:05;17.50;69.70
79716;DHT22;69209;51.420;5.400;2023-05-01T06:19:31;17.70;69.50
79716;DHT22;69209;51.420;5.400;2023-05-01T06:21:56;17.80;69.20
79716;DHT22;69209;51.420;5.400;2023-05-01T06:24:22;17.80;69.20
79716;DHT22;69209;51.420;5.400;2023-05-01T06:26:47;17.90;69.00
79716;DHT22;69209;51.420;5.400;2023-05-01T06:29:13;17.90;69.10
79716;DHT22;69209;51.420;5.400;2023-05-01T06:31:38;17.90;69.10
79716;DHT22;69209;51.420;5.400;2023-05-01T06:34:04;17.90;69.20
79716;DHT22;69209;51.420;5.400;2023-05-01T06:36:29;18.00;69.20
79716;DHT22;69209;51.420;5.400;2023-05-01T06:38:55;18.00;69.20
79716;DHT22;69209;51.420;5.400;2023-05-01T06:41:21;18.10;69.10
79716;DHT22;69209;51.420;5.400;2023-05-01T06:43:47;18.20;69.00
79716;DHT22;69209;51.420;5.400;2023-05-01T06:46:12;18.30;69.00
79716;DHT22;69209;51.420;5.400;2023-05-01T06:48:38;18.40;68.80
79716;DHT22;69209;51.420;5.400;2023-05-01T06:51:03;18.50;68.70
79716;DHT22;69209;51.420;5.400;2023-05-01T06:53:29;18.60;68.20
79716;DHT22;69209;51.420;5.400;2023-05-01T06:55:54;18.80;67.90
79716;DHT22;69209;51.420;5.400;2023-05-01T06:58:20;19.00;67.30
79716;DHT22;69209;51.420;5.400;2023-05-01T07:00:45;19.30;66.50
79716;DHT22;69209;51.420;5.400;2023-05-01T07:03:12;19.80;64.90
79716;DHT22;69209;51.420;5.400;2023-05-01T07:05:37;20.00;64.50
79716;DHT22;69209;51.420;5.400;2023-05-01T07:08:04;20.20;64.00
79716;DHT22;69209;51.420;5.400;2023-05-01T07:10:31;20.30;63.60
79716;DHT22;69209;51.420;5.400;2023-05-01T07:12:56;20.50;63.10
79716;DHT22;69209;51.420;5.400;2023-05-01T07:15:22;20.70;62.60
79716;DHT22;69209;51.420;5.400;2023-05-01T07:17:49;20.90;62.30
79716;DHT22;69209;51.420;5.400;2023-05-01T07:20:14;21.10;61.80
79716;DHT22;69209;51.420;5.400;2023-05-01T07:25:07;22.50;69.70
79716;DHT22;69209;51.420;5.400;2023-05-01T07:27:32;22.90;57.40
79716;DHT22;69209;51.420;5.400;2023-05-01T07:29:59;23.10;57.90
79716;DHT22;69209;51.420;5.400;2023-05-01T07:32:25;23.20;57.00
79716;DHT22;69209;51.420;5.400;2023-05-01T07:34:50;24.10;55.70
79716;DHT22;69209;51.420;5.400;2023-05-01T07:37:16;24.40;54.90
79716;DHT22;69209;51.420;5.400;2023-05-01T07:39:43;24.60;54.70
79716;DHT22;69209;51.420;5.400;2023-05-01T07:42:08;25.10;53.90
79716;DHT22;69209;51.420;5.400;2023-05-01T07:44:34;25.50;53.40
79716;DHT22;69209;51.420;5.400;2023-05-01T07:47:03;25.50;53.30
79716;DHT22;69209;51.420;5.400;2023-05-01T07:49:34;25.80;53.10
79716;DHT22;69209;51.420;5.400;2023-05-01T07:51:59;25.90;53.00
79716;DHT22;69209;51.420;5.400;2023-05-01T07:54:25;25.90;53.00
79716;DHT22;69209;51.420;5.400;2023-05-01T07:56:50;26.00;53.30
79716;DHT22;69209;51.420;5.400;2023-05-01T07:59:16;26.40;53.00
79716;DHT22;69209;51.420;5.400;2023-05-01T08:01:41;25.20;48.50
79716;DHT22;69209;51.420;5.400;2023-05-01T08:04:07;23.50;50.30
79716;DHT22;69209;51.420;5.400;2023-05-01T08:06:33;22.70;51.00
79716;DHT22;69209;51.420;5.400;2023-05-01T08:08:58;22.60;52.10
79716;DHT22;69209;51.420;5.400;2023-05-01T08:11:24;22.70;52.50
79716;DHT22;69209;51.420;5.400;2023-05-01T08:13:50;22.80;51.10
79716;DHT22;69209;51.420;5.400;2023-05-01T08:16:16;22.80;52.40
79716;DHT22;69209;51.420;5.400;2023-05-01T08:18:41;23.00;52.40
79716;DHT22;69209;51.420;5.400;2023-05-01T08:21:07;22.70;52.30
79716;DHT22;69209;51.420;5.400;2023-05-01T08:23:32;22.80;51.80
79716;DHT22;69209;51.420;5.400;2023-05-01T08:25:58;22.80;51.60
79716;DHT22;69209;51.420;5.400;2023-05-01T08:28:23;23.00;52.10
79716;DHT22;69209;51.420;5.400;2023-05-01T08:30:49;22.60;50.80
79716;DHT22;69209;51.420;5.400;2023-05-01T08:33:14;22.70;50.80
79716;DHT22;69209;51.420;5.400;2023-05-01T08:35:40;22.50;50.40
79716;DHT22;69209;51.420;5.400;2023-05-01T08:38:06;22.80;50.60
79716;DHT22;69209;51.420;5.400;2023-05-01T08:40:33;22.70;50.00
79716;DHT22;69209;51.420;5.400;2023-05-01T08:43:00;22.80;49.60
79716;DHT22;69209;51.420;5.400;2023-05-01T08:45:27;22.90;49.10
79716;DHT22;69209;51.420;5.400;2023-05-01T08:47:55;22.90;50.00
79716;DHT22;69209;51.420;5.400;2023-05-01T08:50:20;23.10;49.60
79716;DHT22;69209;51.420;5.400;2023-05-01T08:52:46;23.40;50.10
79716;DHT22;69209;51.420;5.400;2023-05-01T08:55:13;23.40;49.80
79716;DHT22;69209;51.420;5.400;2023-05-01T08:57:46;23.30;49.60
79716;DHT22;69209;51.420;5.400;2023-05-01T09:00:21;22.90;49.10
79716;DHT22;69209;51.420;5.400;2023-05-01T09:02:47;22.70;49.50
79716;DHT22;69209;51.420;5.400;2023-05-01T09:05:17;22.80;49.60
79716;DHT22;69209;51.420;5.400;2023-05-01T09:07:43;23.20;50.00
79716;DHT22;69209;51.420;5.400;2023-05-01T09:10:14;23.20;49.30
79716;DHT22;69209;51.420;5.400;2023-05-01T09:12:40;23.60;48.70
79716;DHT22;69209;51.420;5.400;2023-05-01T09:15:06;23.60;48.10
79716;DHT22;69209;51.420;5.400;2023-05-01T09:17:32;23.70;48.00
79716;DHT22;69209;51.420;5.400;2023-05-01T09:20:00;23.90;47.20
79716;DHT22;69209;51.420;5.400;2023-05-01T09:22:26;23.70;47.20
79716;DHT22;69209;51.420;5.400;2023-05-01T09:24:51;23.60;47.50
79716;DHT22;69209;51.420;5.400;2023-05-01T09:27:17;23.50;48.10
79716;DHT22;69209;51.420;5.400;2023-05-01T09:34:48;23.10;49.40
79716;DHT22;69209;51.420;5.400;2023-05-01T09:37:27;23.30;49.70
79716;DHT22;69209;51.420;5.400;2023-05-01T09:42:47;23.70;48.50
79716;DHT22;69209;51.420;5.400;2023-05-01T09:45:14;23.80;48.40
79716;DHT22;69209;51.420;5.400;2023-05-01T09:47:40;23.70;48.70
79716;DHT22;69209;51.420;5.400;2023-05-01T09:50:06;23.70;49.10
79716;DHT22;69209;51.420;5.400;2023-05-01T09:52:31;23.70;48.70
79716;DHT22;69209;51.420;5.400;2023-05-01T09:55:10;23.70;48.10
79716;DHT22;69209;51.420;5.400;2023-05-01T09:57:36;23.90;48.70
79716;DHT22;69209;51.420;5.400;2023-05-01T10:00:02;24.20;48.40
79716;DHT22;69209;51.420;5.400;2023-05-01T10:02:32;24.20;48.00
79716;DHT22;69209;51.420;5.400;2023-05-01T10:04:58;24.20;47.60
79716;DHT22;69209;51.420;5.400;2023-05-01T10:07:24;24.20;47.60
79716;DHT22;69209;51.420;5.400;2023-05-01T10:09:50;24.10;47.30
79716;DHT22;69209;51.420;5.400;2023-05-01T10:12:25;24.00;47.20
79716;DHT22;69209;51.420;5.400;2023-05-01T10:14:53;24.10;48.10
79716;DHT22;69209;51.420;5.400;2023-05-01T10:17:19;24.10;47.20
79716;DHT22;69209;51.420;5.400;2023-05-01T10:19:45;24.20;47.20
79716;DHT22;69209;51.420;5.400;2023-05-01T10:22:15;24.30;47.20
79716;DHT22;69209;51.420;5.400;2023-05-01T10:24:41;24.20;47.10
79716;DHT22;69209;51.420;5.400;2023-05-01T10:27:08;24.20;47.00
79716;DHT22;69209;51.420;5.400;2023-05-01T10:29:34;24.10;46.70
79716;DHT22;69209;51.420;5.400;2023-05-01T10:32:03;24.00;47.60
79716;DHT22;69209;51.420;5.400;2023-05-01T10:34:31;23.90;47.10
79716;DHT22;69209;51.420;5.400;2023-05-01T10:39:57;23.80;48.20
79716;DHT22;69209;51.420;5.400;2023-05-01T10:42:22;23.70;48.30
79716;DHT22;69209;51.420;5.400;2023-05-01T10:44:48;23.90;48.60
79716;DHT22;69209;51.420;5.400;2023-05-01T10:52:29;23.80;48.70
79716;DHT22;69209;51.420;5.400;2023-05-01T10:55:30;23.80;48.60
79716;DHT22;69209;51.420;5.400;2023-05-01T10:57:41;23.70;48.70
79716;DHT22;69209;51.420;5.400;2023-05-01T11:02:34;23.50;48.70
79716;DHT22;69209;51.420;5.400;2023-05-01T11:07:27;23.40;49.00
79716;DHT22;69209;51.420;5.400;2023-05-01T11:09:53;23.50;49.20
79716;DHT22;69209;51.420;5.400;2023-05-01T11:15:03;23.70;48.70
79716;DHT22;69209;51.420;5.400;2023-05-01T11:20:04;23.30;49.00
79716;DHT22;69209;51.420;5.400;2023-05-01T11:22:30;23.20;48.90
79716;DHT22;69209;51.420;5.400;2023-05-01T11:24:55;22.90;49.10
79716;DHT22;69209;51.420;5.400;2023-05-01T11:27:21;22.80;49.30
79716;DHT22;69209;51.420;5.400;2023-05-01T11:29:47;22.70;49.70
79716;DHT22;69209;51.420;5.400;2023-05-01T11:32:17;22.80;50.00
79716;DHT22;69209;51.420;5.400;2023-05-01T11:34:43;23.00;49.80
79716;DHT22;69209;51.420;5.400;2023-05-01T11:37:08;23.00;49.40
79716;DHT22;69209;51.420;5.400;2023-05-01T11:39:34;23.10;49.40
79716;DHT22;69209;51.420;5.400;2023-05-01T11:42:08;23.10;48.90
79716;DHT22;69209;51.420;5.400;2023-05-01T11:44:34;23.40;48.70
79716;DHT22;69209;51.420;5.400;2023-05-01T11:47:00;23.70;48.30
79716;DHT22;69209;51.420;5.400;2023-05-01T11:49:26;23.70;49.50
79716;DHT22;69209;51.420;5.400;2023-05-01T11:51:58;23.70;47.70
79716;DHT22;69209;51.420;5.400;2023-05-01T11:54:25;23.90;46.80
79716;DHT22;69209;51.420;5.400;2023-05-01T11:56:59;24.00;46.70
79716;DHT22;69209;51.420;5.400;2023-05-01T11:59:25;24.10;47.70
79716;DHT22;69209;51.420;5.400;2023-05-01T12:01:51;24.10;48.10
79716;DHT22;69209;51.420;5.400;2023-05-01T12:04:26;24.20;50.00
79716;DHT22;69209;51.420;5.400;2023-05-01T12:06:52;24.20;47.20
79716;DHT22;69209;51.420;5.400;2023-05-01T12:09:18;24.00;46.20
79716;DHT22;69209;51.420;5.400;2023-05-01T12:11:45;23.90;45.60
79716;DHT22;69209;51.420;5.400;2023-05-01T12:14:12;23.80;47.20
79716;DHT22;69209;51.420;5.400;2023-05-01T12:16:38;23.80;46.40
79716;DHT22;69209;51.420;5.400;2023-05-01T12:19:05;23.80;47.10
79716;DHT22;69209;51.420;5.400;2023-05-01T12:21:30;23.60;52.90
79716;DHT22;69209;51.420;5.400;2023-05-01T12:23:56;23.70;53.60
79716;DHT22;69209;51.420;5.400;2023-05-01T12:26:31;23.60;48.60
79716;DHT22;69209;51.420;5.400;2023-05-01T12:31:23;23.70;47.50
79716;DHT22;69209;51.420;5.400;2023-05-01T12:33:53;23.70;47.50
79716;DHT22;69209;51.420;5.400;2023-05-01T12:36:19;23.50;47.90
79716;DHT22;69209;51.420;5.400;2023-05-01T12:44:29;23.30;48.00
79716;DHT22;69209;51.420;5.400;2023-05-01T12:46:58;23.00;48.40
79716;DHT22;69209;51.420;5.400;2023-05-01T12:49:24;22.90;48.30
79716;DHT22;69209;51.420;5.400;2023-05-01T12:51:50;22.80;48.70
79716;DHT22;69209;51.420;5.400;2023-05-01T12:54:20;22.80;48.40
79716;DHT22;69209;51.420;5.400;2023-05-01T12:56:46;22.80;48.10
79716;DHT22;69209;51.420;5.400;2023-05-01T13:01:47;22.90;48.20
79716;DHT22;69209;51.420;5.400;2023-05-01T13:04:19;22.90;47.90
79716;DHT22;69209;51.420;5.400;2023-05-01T13:06:44;22.90;47.60
79716;DHT22;69209;51.420;5.400;2023-05-01T13:09:10;22.90;47.70
79716;DHT22;69209;51.420;5.400;2023-05-01T13:11:36;22.80;47.80
79716;DHT22;69209;51.420;5.400;2023-05-01T13:14:08;22.80;48.00
79716;DHT22;69209;51.420;5.400;2023-05-01T13:16:34;22.70;48.00
79716;DHT22;69209;51.420;5.400;2023-05-01T13:19:07;22.70;48.30
79716;DHT22;69209;51.420;5.400;2023-05-01T13:21:33;22.80;48.50
79716;DHT22;69209;51.420;5.400;2023-05-01T13:23:59;22.70;50.40
79716;DHT22;69209;51.420;5.400;2023-05-01T13:26:32;22.70;56.70
79716;DHT22;69209;51.420;5.400;2023-05-01T13:28:59;22.60;59.00
79716;DHT22;69209;51.420;5.400;2023-05-01T13:31:26;22.60;59.80
79716;DHT22;69209;51.420;5.400;2023-05-01T13:33:52;22.50;59.70
79716;DHT22;69209;51.420;5.400;2023-05-01T13:36:18;22.50;59.50
79716;DHT22;69209;51.420;5.400;2023-05-01T13:38:45;22.30;57.20
79716;DHT22;69209;51.420;5.400;2023-05-01T13:41:12;22.20;60.10
79716;DHT22;69209;51.420;5.400;2023-05-01T13:43:38;22.10;56.20
79716;DHT22;69209;51.420;5.400;2023-05-01T13:46:03;22.10;56.70
79716;DHT22;69209;51.420;5.400;2023-05-01T13:48:30;22.00;54.90
79716;DHT22;69209;51.420;5.400;2023-05-01T13:50:56;22.00;56.10
79716;DHT22;69209;51.420;5.400;2023-05-01T13:53:22;21.90;55.40
79716;DHT22;69209;51.420;5.400;2023-05-01T13:55:47;22.20;47.60
79716;DHT22;69209;51.420;5.400;2023-05-01T13:58:13;22.10;47.10
79716;DHT22;69209;51.420;5.400;2023-05-01T14:00:38;22.10;47.70
79716;DHT22;69209;51.420;5.400;2023-05-01T14:03:04;22.10;48.20
79716;DHT22;69209;51.420;5.400;2023-05-01T14:05:29;21.90;47.90
79716;DHT22;69209;51.420;5.400;2023-05-01T14:07:56;21.90;48.10
79716;DHT22;69209;51.420;5.400;2023-05-01T14:10:23;21.70;47.40
79716;DHT22;69209;51.420;5.400;2023-05-01T14:12:50;21.50;48.00
79716;DHT22;69209;51.420;5.400;2023-05-01T14:15:18;21.40;48.60
79716;DHT22;69209;51.420;5.400;2023-05-01T14:17:44;21.30;48.50
79716;DHT22;69209;51.420;5.400;2023-05-01T14:20:10;21.30;48.60
79716;DHT22;69209;51.420;5.400;2023-05-01T14:22:40;21.50;49.30
79716;DHT22;69209;51.420;5.400;2023-05-01T14:25:08;21.50;49.60
79716;DHT22;69209;51.420;5.400;2023-05-01T14:27:39;21.50;48.70
79716;DHT22;69209;51.420;5.400;2023-05-01T14:30:05;21.50;47.80
79716;DHT22;69209;51.420;5.400;2023-05-01T14:32:34;21.50;47.70
79716;DHT22;69209;51.420;5.400;2023-05-01T14:35:01;21.50;48.60
79716;DHT22;69209;51.420;5.400;2023-05-01T14:37:31;21.50;48.40
79716;DHT22;69209;51.420;5.400;2023-05-01T14:39:56;21.50;48.30
79716;DHT22;69209;51.420;5.400;2023-05-01T14:42:22;21.40;48.80
79716;DHT22;69209;51.420;5.400;2023-05-01T14:44:47;21.30;48.80
79716;DHT22;69209;51.420;5.400;2023-05-01T14:47:13;21.10;48.80
79716;DHT22;69209;51.420;5.400;2023-05-01T14:49:41;21.00;49.50
79716;DHT22;69209;51.420;5.400;2023-05-01T14:52:07;21.00;49.40
79716;DHT22;69209;51.420;5.400;2023-05-01T14:54:34;21.10;49.30
79716;DHT22;69209;51.420;5.400;2023-05-01T14:57:03;21.20;49.60
79716;DHT22;69209;51.420;5.400;2023-05-01T14:59:30;21.30;49.40
79716;DHT22;69209;51.420;5.400;2023-05-01T15:01:56;21.40;49.20
79716;DHT22;69209;51.420;5.400;2023-05-01T15:04:21;21.40;48.80
79716;DHT22;69209;51.420;5.400;2023-05-01T15:06:47;21.40;48.60
79716;DHT22;69209;51.420;5.400;2023-05-01T15:09:12;21.30;48.20
79716;DHT22;69209;51.420;5.400;2023-05-01T15:11:38;21.10;48.30
79716;DHT22;69209;51.420;5.400;2023-05-01T15:14:04;21.30;48.60
79716;DHT22;69209;51.420;5.400;2023-05-01T15:16:30;21.40;48.40
79716;DHT22;69209;51.420;5.400;2023-05-01T15:18:56;21.40;48.30
79716;DHT22;69209;51.420;5.400;2023-05-01T15:21:22;21.40;48.50
79716;DHT22;69209;51.420;5.400;2023-05-01T15:23:48;21.50;48.70
79716;DHT22;69209;51.420;5.400;2023-05-01T15:26:13;21.60;48.90
79716;DHT22;69209;51.420;5.400;2023-05-01T15:28:39;21.40;48.60
79716;DHT22;69209;51.420;5.400;2023-05-01T15:31:04;21.40;49.00
79716;DHT22;69209;51.420;5.400;2023-05-01T15:33:31;21.30;49.10
79716;DHT22;69209;51.420;5.400;2023-05-01T15:35:56;21.40;49.50
79716;DHT22;69209;51.420;5.400;2023-05-01T15:38:22;21.40;49.60
79716;DHT22;69209;51.420;5.400;2023-05-01T15:40:48;21.40;49.70
79716;DHT22;69209;51.420;5.400;2023-05-01T15:43:16;21.40;50.00
79716;DHT22;69209;51.420;5.400;2023-05-01T15:45:42;21.30;49.70
79716;DHT22;69209;51.420;5.400;2023-05-01T15:48:08;21.30;50.10
79716;DHT22;69209;51.420;5.400;2023-05-01T15:50:35;21.20;50.70
79716;DHT22;69209;51.420;5.400;2023-05-01T15:53:00;21.30;50.70
79716;DHT22;69209;51.420;5.400;2023-05-01T15:55:26;21.20;50.70
79716;DHT22;69209;51.420;5.400;2023-05-01T15:57:51;21.20;50.80
79716;DHT22;69209;51.420;5.400;2023-05-01T16:00:17;21.20;51.20
79716;DHT22;69209;51.420;5.400;2023-05-01T16:02:43;21.30;51.20
79716;DHT22;69209;51.420;5.400;2023-05-01T16:05:09;21.20;51.50
79716;DHT22;69209;51.420;5.400;2023-05-01T16:07:34;21.20;51.70
79716;DHT22;69209;51.420;5.400;2023-05-01T16:10:00;21.10;51.80
79716;DHT22;69209;51.420;5.400;2023-05-01T16:12:26;21.00;51.90
79716;DHT22;69209;51.420;5.400;2023-05-01T16:14:52;20.90;51.90
79716;DHT22;69209;51.420;5.400;2023-05-01T16:17:17;20.80;52.30
79716;DHT22;69209;51.420;5.400;2023-05-01T16:19:44;20.80;52.50